createdAt,value
2019-03-30T00:01:17.362Z,9.40
2019-03-30T00:03:48.810Z,9.80
2019-03-30T00:06:20.130Z,9.53
2019-03-30T00:08:51.477Z,9.45
2019-03-30T00:11:22.789Z,9.90
2019-03-30T00:13:54.169Z,9.78
2019-03-30T00:16:25.485Z,9.58
2019-03-30T00:18:56.784Z,9.50
2019-03-30T00:21:28.077Z,9.30
2019-03-30T00:24:03.782Z,9.70
2019-03-30T00:26:36.105Z,10.60
2019-03-30T00:29:07.439Z,9.90
2019-03-30T00:31:38.872Z,9.78
2019-03-30T00:34:10.132Z,10.85
2019-03-30T00:36:41.554Z,11.63
2019-03-30T00:39:12.936Z,10.23
2019-03-30T00:41:44.198Z,11.88
2019-03-30T00:44:15.603Z,10.68
2019-03-30T00:46:47.225Z,11.55
2019-03-30T00:49:18.599Z,11.33
2019-03-30T00:51:50.019Z,11.53
2019-03-30T00:54:22.644Z,10.70
2019-03-30T00:56:53.870Z,10.63
2019-03-30T00:59:25.117Z,10.58
2019-03-30T01:01:56.423Z,10.10
2019-03-30T01:04:27.787Z,10.38
2019-03-30T01:06:59.106Z,10.20
2019-03-30T01:09:30.510Z,9.95
2019-03-30T01:12:01.875Z,10.08
2019-03-30T01:14:33.283Z,8.57
2019-03-30T01:17:04.912Z,9.78
2019-03-30T01:19:36.193Z,9.80
2019-03-30T01:22:07.504Z,9.67
2019-03-30T01:24:38.873Z,9.60
2019-03-30T01:27:10.147Z,11.20
2019-03-30T01:29:41.469Z,10.25
2019-03-30T01:32:12.870Z,10.00
2019-03-30T01:34:44.405Z,8.77
2019-03-30T01:37:15.723Z,10.50
2019-03-30T01:39:47.223Z,9.95
2019-03-30T01:42:18.487Z,9.60
2019-03-30T01:44:49.973Z,10.03
2019-03-30T01:47:21.442Z,10.03
2019-03-30T01:49:54.475Z,8.67
2019-03-30T01:52:25.738Z,10.40
2019-03-30T01:54:57.001Z,10.28
2019-03-30T01:57:28.513Z,9.38
2019-03-30T02:00:00.785Z,10.98
2019-03-30T02:02:32.540Z,9.57
2019-03-30T02:05:04.647Z,9.67
2019-03-30T02:07:35.994Z,10.65
2019-03-30T02:10:08.973Z,10.78
2019-03-30T02:12:40.368Z,9.37
2019-03-30T02:15:11.953Z,9.00
2019-03-30T02:17:43.266Z,9.77
2019-03-30T02:20:30.591Z,9.30
2019-03-30T02:22:54.916Z,8.93
2019-03-30T02:25:26.183Z,10.17
2019-03-30T02:27:57.572Z,10.07
2019-03-30T02:30:28.919Z,9.00
2019-03-30T02:33:00.329Z,9.77
2019-03-30T02:35:31.653Z,8.97
2019-03-30T02:38:03.230Z,8.93
2019-03-30T02:40:34.562Z,8.40
2019-03-30T02:43:06.173Z,8.73
2019-03-30T02:45:37.527Z,8.60
2019-03-30T02:48:09.047Z,8.87
2019-03-30T02:50:49.509Z,9.23
2019-03-30T02:53:13.519Z,9.67
2019-03-30T02:55:44.845Z,9.80
2019-03-30T02:58:16.226Z,10.40
2019-03-30T03:00:47.614Z,9.63
2019-03-30T03:03:19.217Z,9.63
2019-03-30T03:05:50.645Z,10.87
2019-03-30T03:08:22.318Z,10.47
2019-03-30T03:10:53.770Z,9.47
2019-03-30T03:13:25.111Z,9.93
2019-03-30T03:15:56.376Z,9.50
2019-03-30T03:18:27.759Z,9.43
2019-03-30T03:21:07.423Z,9.10
2019-03-30T03:23:32.154Z,9.13
2019-03-30T03:26:03.583Z,9.87
2019-03-30T03:28:35.052Z,9.90
2019-03-30T03:31:06.382Z,8.03
2019-03-30T03:33:37.848Z,8.30
2019-03-30T03:36:09.334Z,9.47
2019-03-30T03:38:40.686Z,8.00
2019-03-30T03:41:13.003Z,7.37
2019-03-30T03:43:44.389Z,8.60
2019-03-30T03:46:15.729Z,7.43
2019-03-30T03:48:47.173Z,7.17
2019-03-30T03:51:26.155Z,8.13
2019-03-30T03:53:53.863Z,7.83
2019-03-30T03:56:27.030Z,8.30
2019-03-30T03:58:58.577Z,7.77
2019-03-30T04:01:31.767Z,7.50
2019-03-30T04:04:04.471Z,7.90
2019-03-30T04:06:39.147Z,7.87
2019-03-30T04:09:10.527Z,7.53
2019-03-30T04:11:44.058Z,8.40
2019-03-30T04:14:18.020Z,7.83
2019-03-30T04:16:49.386Z,8.50
2019-03-30T04:19:20.791Z,8.73
2019-03-30T04:21:52.117Z,7.67
2019-03-30T04:24:23.377Z,8.73
2019-03-30T04:26:54.722Z,9.17
2019-03-30T04:29:26.056Z,9.77
2019-03-30T04:31:57.376Z,8.63
2019-03-30T04:34:28.688Z,8.70
2019-03-30T04:36:59.995Z,8.80
2019-03-30T04:39:31.380Z,9.50
2019-03-30T04:42:02.913Z,8.63
2019-03-30T04:44:34.255Z,7.80
2019-03-30T04:47:06.131Z,8.17
2019-03-30T04:49:37.898Z,8.70
2019-03-30T04:52:11.714Z,8.43
2019-03-30T04:54:43.206Z,8.80
2019-03-30T04:57:14.613Z,8.20
2019-03-30T05:00:14.738Z,9.53
2019-03-30T05:02:48.533Z,8.43
2019-03-30T05:05:19.840Z,9.03
2019-03-30T05:07:51.294Z,8.90
2019-03-30T05:10:22.593Z,11.73
2019-03-30T05:12:53.917Z,11.73
2019-03-30T05:15:25.436Z,12.07
2019-03-30T05:17:56.832Z,10.83
2019-03-30T05:20:28.220Z,11.43
2019-03-30T05:22:59.791Z,10.73
2019-03-30T05:25:31.128Z,10.50
2019-03-30T05:28:02.573Z,11.67
2019-03-30T05:30:33.900Z,10.40
2019-03-30T05:33:06.992Z,10.40
2019-03-30T05:35:39.551Z,10.70
2019-03-30T05:38:10.945Z,11.33
2019-03-30T05:40:42.228Z,11.47
2019-03-30T05:43:13.530Z,9.17
2019-03-30T05:45:44.898Z,9.80
2019-03-30T05:48:16.199Z,9.90
2019-03-30T05:50:47.926Z,11.03
2019-03-30T05:53:19.226Z,8.90
2019-03-30T05:55:50.700Z,8.77
2019-03-30T05:58:22.058Z,8.90
2019-03-30T06:00:53.438Z,8.50
2019-03-30T06:03:24.909Z,8.93
2019-03-30T06:06:00.860Z,9.27
2019-03-30T06:08:32.165Z,10.23
2019-03-30T06:11:03.427Z,12.07
2019-03-30T06:13:34.709Z,12.27
2019-03-30T06:16:06.149Z,12.77
2019-03-30T06:18:38.515Z,11.33
2019-03-30T06:21:10.089Z,12.43
2019-03-30T06:23:41.490Z,11.40
2019-03-30T06:26:14.553Z,11.77
2019-03-30T06:28:46.018Z,14.23
2019-03-30T06:31:17.409Z,11.43
2019-03-30T06:33:49.771Z,11.70
2019-03-30T06:36:21.011Z,12.67
2019-03-30T06:38:52.463Z,13.10
2019-03-30T06:41:24.894Z,13.07
2019-03-30T06:43:56.249Z,14.53
2019-03-30T06:46:31.097Z,14.27
2019-03-30T06:49:02.539Z,14.60
2019-03-30T06:51:33.834Z,18.67
2019-03-30T06:54:08.281Z,17.40
2019-03-30T06:56:39.519Z,19.63
2019-03-30T06:59:10.816Z,17.60
2019-03-30T07:01:42.519Z,17.70
2019-03-30T07:04:15.541Z,18.57
2019-03-30T07:06:47.620Z,17.97
2019-03-30T07:09:21.935Z,17.87
2019-03-30T07:11:56.262Z,17.25
2019-03-30T07:14:32.419Z,17.10
2019-03-30T07:17:05.624Z,17.17
2019-03-30T07:19:40.331Z,17.80
2019-03-30T07:22:11.883Z,17.95
2019-03-30T07:24:43.404Z,15.93
2019-03-30T07:27:18.338Z,15.98
2019-03-30T07:29:49.698Z,17.07
2019-03-30T07:32:21.101Z,16.67
2019-03-30T07:34:52.476Z,16.87
2019-03-30T07:37:23.709Z,17.53
2019-03-30T07:39:55.108Z,17.10
2019-03-30T07:42:26.586Z,16.70
2019-03-30T07:44:59.913Z,17.10
2019-03-30T07:47:32.861Z,18.15
2019-03-30T07:50:08.926Z,17.63
2019-03-30T07:52:40.355Z,17.07
2019-03-30T07:55:11.944Z,17.40
2019-03-30T07:57:43.392Z,17.15
2019-03-30T08:00:15.690Z,18.15
2019-03-30T08:02:46.922Z,16.93
2019-03-30T08:05:18.308Z,16.60
2019-03-30T08:07:49.798Z,17.62
2019-03-30T08:10:21.241Z,16.60
2019-03-30T08:12:52.700Z,17.05
2019-03-30T08:15:24.191Z,16.90
2019-03-30T08:17:55.543Z,17.55
2019-03-30T08:20:28.351Z,16.48
2019-03-30T08:22:59.589Z,16.90
2019-03-30T08:25:31.053Z,16.60
2019-03-30T08:28:02.493Z,17.15
2019-03-30T08:30:33.810Z,16.02
2019-03-30T08:33:05.113Z,16.25
2019-03-30T08:35:36.425Z,17.02
2019-03-30T08:38:07.669Z,16.70
2019-03-30T08:40:38.916Z,16.70
2019-03-30T08:43:10.299Z,16.65
2019-03-30T08:45:41.589Z,17.30
2019-03-30T08:48:13.035Z,33.95
2019-03-30T08:50:44.558Z,16.17
2019-03-30T08:53:17.622Z,15.65
2019-03-30T08:55:51.011Z,15.80
2019-03-30T08:58:22.609Z,14.95
2019-03-30T09:00:53.859Z,15.15
2019-03-30T09:03:25.125Z,15.68
2019-03-30T09:05:57.001Z,15.35
2019-03-30T09:08:28.317Z,15.38
2019-03-30T09:10:59.863Z,16.40
2019-03-30T09:13:31.604Z,16.77
2019-03-30T09:16:03.072Z,16.87
2019-03-30T09:18:34.368Z,16.02
2019-03-30T09:21:06.107Z,17.02
2019-03-30T09:23:37.493Z,17.02
2019-03-30T09:26:08.892Z,16.10
2019-03-30T09:28:40.856Z,16.02
2019-03-30T09:31:12.219Z,17.07
2019-03-30T09:33:43.691Z,15.90
2019-03-30T09:36:15.156Z,14.75
2019-03-30T09:38:47.682Z,15.08
2019-03-30T09:41:19.083Z,15.43
2019-03-30T09:43:50.533Z,14.47
2019-03-30T09:46:21.800Z,14.60
2019-03-30T09:48:53.037Z,15.65
2019-03-30T09:51:24.491Z,15.75
2019-03-30T09:53:55.959Z,14.85
2019-03-30T09:56:27.224Z,14.90
2019-03-30T09:58:58.626Z,15.20
2019-03-30T10:01:30.107Z,14.55
2019-03-30T10:04:02.471Z,14.75
2019-03-30T10:06:34.814Z,13.95
2019-03-30T10:09:07.529Z,15.25
2019-03-30T10:11:38.859Z,13.83
2019-03-30T10:14:10.366Z,13.78
2019-03-30T10:16:43.709Z,14.00
2019-03-30T10:19:14.962Z,14.38
2019-03-30T10:21:46.467Z,14.13
2019-03-30T10:24:17.930Z,14.10
2019-03-30T10:26:49.324Z,13.80
2019-03-30T10:29:20.718Z,14.78
2019-03-30T10:31:51.967Z,15.98
2019-03-30T10:34:24.467Z,14.73
2019-03-30T10:36:55.792Z,14.07
2019-03-30T10:39:27.066Z,14.70
2019-03-30T10:41:58.383Z,14.78
2019-03-30T10:44:29.673Z,14.07
2019-03-30T10:47:01.120Z,13.62
2019-03-30T10:49:32.518Z,13.85
2019-03-30T10:52:03.957Z,14.10
2019-03-30T10:54:35.359Z,13.75
2019-03-30T10:57:10.126Z,12.53
2019-03-30T10:59:47.504Z,12.65
2019-03-30T11:02:19.053Z,12.43
2019-03-30T11:04:50.286Z,12.05
2019-03-30T11:07:23.554Z,15.68
2019-03-30T11:09:55.324Z,12.20
2019-03-30T11:12:28.215Z,11.83
2019-03-30T11:14:59.885Z,11.38
2019-03-30T11:17:31.210Z,11.90
2019-03-30T11:20:02.608Z,11.83
2019-03-30T11:22:33.973Z,11.20
2019-03-30T11:25:08.502Z,10.53
2019-03-30T11:27:40.019Z,11.25
2019-03-30T11:30:11.413Z,11.43
2019-03-30T11:32:42.786Z,10.15
2019-03-30T11:35:14.047Z,11.70
2019-03-30T11:37:45.387Z,10.65
2019-03-30T11:40:22.581Z,9.85
2019-03-30T11:42:55.924Z,10.28
2019-03-30T11:45:27.306Z,10.53
2019-03-30T11:47:58.873Z,9.33
2019-03-30T11:50:30.194Z,8.90
2019-03-30T11:53:01.624Z,8.33
2019-03-30T11:55:32.942Z,9.43
2019-03-30T11:58:04.307Z,8.63
2019-03-30T12:00:35.649Z,9.03
2019-03-30T12:03:08.740Z,8.03
2019-03-30T12:05:42.113Z,8.33
2019-03-30T12:08:13.517Z,8.33
2019-03-30T12:10:50.995Z,8.88
2019-03-30T12:13:22.651Z,8.60
2019-03-30T12:15:53.966Z,7.70
2019-03-30T12:18:25.456Z,7.08
2019-03-30T12:20:56.803Z,6.15
2019-03-30T12:23:28.321Z,5.90
2019-03-30T12:25:59.566Z,6.60
2019-03-30T12:28:32.579Z,5.28
2019-03-30T12:31:03.901Z,6.28
2019-03-30T12:33:35.197Z,7.10
2019-03-30T12:36:06.583Z,6.80
2019-03-30T12:38:38.036Z,6.17
2019-03-30T12:41:09.413Z,5.58
2019-03-30T12:43:40.726Z,5.08
2019-03-30T12:46:12.091Z,4.25
2019-03-30T12:48:43.578Z,4.53
2019-03-30T12:51:14.950Z,4.80
2019-03-30T12:53:50.402Z,5.50
2019-03-30T12:56:20.913Z,5.45
2019-03-30T12:58:52.158Z,5.30
2019-03-30T13:01:23.635Z,4.80
2019-03-30T13:03:55.973Z,5.03
2019-03-30T13:06:27.283Z,4.80
2019-03-30T13:08:58.638Z,4.90
2019-03-30T13:11:29.966Z,5.28
2019-03-30T13:14:01.422Z,4.35
2019-03-30T13:16:32.943Z,5.08
2019-03-30T13:19:04.328Z,5.35
2019-03-30T13:21:35.630Z,6.95
2019-03-30T13:24:07.097Z,5.47
2019-03-30T13:26:38.494Z,5.47
2019-03-30T13:29:09.868Z,4.60
2019-03-30T13:31:42.093Z,4.67
2019-03-30T13:34:19.473Z,4.35
2019-03-30T13:36:50.957Z,4.83
2019-03-30T13:39:22.310Z,4.70
2019-03-30T13:41:53.698Z,4.83
2019-03-30T13:44:34.209Z,4.10
2019-03-30T13:47:05.652Z,5.35
2019-03-30T13:49:38.039Z,4.80
2019-03-30T13:52:11.358Z,4.50
2019-03-30T13:54:42.801Z,4.28
2019-03-30T13:57:15.068Z,3.80
2019-03-30T13:59:52.994Z,3.47
2019-03-30T14:02:28.521Z,3.80
2019-03-30T14:05:00.006Z,3.98
2019-03-30T14:07:32.913Z,3.70
2019-03-30T14:10:08.824Z,3.27
2019-03-30T14:12:40.290Z,4.22
2019-03-30T14:22:43.970Z,3.62
2019-03-30T14:25:22.099Z,3.75
2019-03-30T14:27:53.502Z,3.55
2019-03-30T14:30:25.105Z,3.15
2019-03-30T14:32:56.628Z,3.83
2019-03-30T14:35:29.700Z,3.70
2019-03-30T14:38:29.416Z,3.72
2019-03-30T14:41:04.000Z,3.72
2019-03-30T14:43:35.565Z,4.62
2019-03-30T14:46:09.591Z,3.92
2019-03-30T14:48:40.513Z,3.50
2019-03-30T14:51:15.899Z,3.90
2019-03-30T14:53:47.876Z,3.52
2019-03-30T14:56:19.119Z,3.25
2019-03-30T14:58:50.594Z,2.70
2019-03-30T15:01:25.297Z,3.35
2019-03-30T15:03:57.002Z,3.25
2019-03-30T15:06:29.567Z,3.20
2019-03-30T15:09:05.175Z,3.30
2019-03-30T15:11:38.085Z,3.10
2019-03-30T15:14:12.426Z,3.33
2019-03-30T15:16:43.739Z,3.25
2019-03-30T15:19:15.050Z,3.00
2019-03-30T15:21:46.391Z,2.98
2019-03-30T15:24:17.753Z,3.10
2019-03-30T15:26:59.697Z,2.83
2019-03-30T15:29:25.357Z,2.75
2019-03-30T15:31:56.755Z,3.50
2019-03-30T15:34:28.036Z,3.37
2019-03-30T15:36:59.357Z,3.12
2019-03-30T15:39:37.197Z,3.20
2019-03-30T15:42:08.601Z,3.30
2019-03-30T15:44:40.784Z,3.45
2019-03-30T15:47:12.315Z,3.15
2019-03-30T15:49:43.948Z,3.27
2019-03-30T15:52:15.584Z,3.30
2019-03-30T15:54:48.949Z,3.65
2019-03-30T15:57:20.319Z,2.90
2019-03-30T15:59:53.268Z,3.00
2019-03-30T16:02:25.622Z,3.25
2019-03-30T16:04:56.980Z,2.80
2019-03-30T16:07:29.298Z,2.65
2019-03-30T16:10:03.986Z,2.77
2019-03-30T16:12:35.483Z,3.02
2019-03-30T16:15:07.859Z,3.12
2019-03-30T16:17:40.930Z,2.92
2019-03-30T16:20:13.235Z,3.15
2019-03-30T16:22:46.185Z,2.90
2019-03-30T16:25:21.256Z,2.87
2019-03-30T16:27:52.493Z,3.10
2019-03-30T16:30:27.136Z,3.00
2019-03-30T16:32:58.466Z,3.47
2019-03-30T16:35:31.123Z,2.95
2019-03-30T16:38:02.605Z,3.52
2019-03-30T16:40:34.267Z,3.40
2019-03-30T16:43:08.688Z,2.70
2019-03-30T16:45:40.285Z,2.50
2019-03-30T16:48:14.628Z,2.58
2019-03-30T16:50:46.653Z,2.70
2019-03-30T16:53:18.137Z,2.50
2019-03-30T16:55:49.684Z,5.25
2019-03-30T16:58:21.037Z,3.72
2019-03-30T17:00:56.790Z,6.62
2019-03-30T17:03:25.746Z,4.10
2019-03-30T17:06:01.220Z,2.83
2019-03-30T17:08:32.499Z,3.10
2019-03-30T17:11:04.032Z,2.40
2019-03-30T17:13:35.264Z,2.83
2019-03-30T17:16:07.485Z,2.50
2019-03-30T17:18:39.083Z,2.20
2019-03-30T17:21:10.538Z,2.00
2019-03-30T17:23:41.879Z,2.33
2019-03-30T17:26:16.980Z,2.85
2019-03-30T17:28:48.440Z,13.30
2019-03-30T17:31:24.180Z,4.25
2019-03-30T17:33:55.433Z,18.82
2019-03-30T17:36:29.350Z,12.43
2019-03-30T17:39:04.026Z,5.45
2019-03-30T17:41:38.126Z,4.30
2019-03-30T17:44:09.702Z,4.15
2019-03-30T17:47:01.629Z,3.75
2019-03-30T17:49:32.063Z,4.50
2019-03-30T17:52:12.575Z,4.97
2019-03-30T17:58:30.058Z,13.90
2019-03-30T18:01:01.659Z,14.15
2019-03-30T18:03:33.131Z,9.73
2019-03-30T18:06:10.005Z,7.33
2019-03-30T18:08:49.605Z,4.12
2019-03-30T18:11:36.781Z,3.70
2019-03-30T18:14:08.015Z,5.85
2019-03-30T18:16:41.037Z,14.83
2019-03-30T18:22:34.368Z,6.50
2019-03-30T18:25:17.499Z,6.12
2019-03-30T18:27:55.639Z,9.45
2019-03-30T18:30:40.908Z,15.15
2019-03-30T18:33:12.296Z,11.33
2019-03-30T18:35:45.386Z,15.75
2019-03-30T18:38:17.596Z,10.88
2019-03-30T18:40:57.242Z,18.25
2019-03-30T18:43:42.510Z,16.77
2019-03-30T18:46:21.540Z,8.15
2019-03-30T18:48:53.003Z,6.92
2019-03-30T18:51:28.264Z,8.15
2019-03-30T18:54:02.299Z,7.72
2019-03-30T18:56:33.700Z,6.90
2019-03-30T18:59:05.104Z,5.75
2019-03-30T19:01:44.239Z,4.65
2019-03-30T19:04:16.076Z,4.22
2019-03-30T19:06:52.506Z,4.87
2019-03-30T19:09:24.030Z,6.20
2019-03-30T19:11:55.461Z,7.80
2019-03-30T19:14:27.055Z,6.92
2019-03-30T19:16:58.459Z,6.17
2019-03-30T19:19:34.889Z,6.37
2019-03-30T19:22:06.212Z,5.60
2019-03-30T19:24:37.622Z,4.67
2019-03-30T19:27:09.019Z,5.50
2019-03-30T19:29:40.680Z,6.30
2019-03-30T19:32:12.283Z,7.40
2019-03-30T19:34:43.809Z,10.38
2019-03-30T19:37:15.209Z,11.45
2019-03-30T19:39:49.350Z,10.68
2019-03-30T19:42:20.968Z,5.70
2019-03-30T19:44:54.031Z,4.37
2019-03-30T19:47:25.766Z,8.30
2019-03-30T19:49:57.286Z,15.08
2019-03-30T19:52:39.722Z,19.12
2019-03-30T19:55:02.158Z,16.32
2019-03-30T19:57:35.429Z,13.65
2019-03-30T20:00:12.784Z,8.73
2019-03-30T20:02:44.563Z,3.83
2019-03-30T20:05:16.860Z,4.75
2019-03-30T20:07:48.408Z,5.67
2019-03-30T20:10:20.208Z,10.72
2019-03-30T20:12:51.498Z,9.23
2019-03-30T20:15:22.963Z,7.85
2019-03-30T20:17:54.366Z,9.05
2019-03-30T20:20:25.965Z,17.48
2019-03-30T20:22:57.341Z,14.18
2019-03-30T20:25:28.733Z,10.25
2019-03-30T20:27:59.997Z,13.40
2019-03-30T20:30:31.484Z,9.53
2019-03-30T20:33:02.749Z,8.50
2019-03-30T20:35:36.152Z,11.55
2019-03-30T20:38:07.544Z,14.55
2019-03-30T20:40:40.174Z,14.60
2019-03-30T20:43:12.500Z,12.98
2019-03-30T20:45:43.899Z,12.60
2019-03-30T20:48:15.221Z,11.70
2019-03-30T20:50:46.675Z,12.00
2019-03-30T20:53:18.006Z,10.50
2019-03-30T20:55:49.384Z,9.65
2019-03-30T20:58:20.711Z,7.87
2019-03-30T21:00:52.171Z,8.68
2019-03-30T21:03:23.837Z,8.38
2019-03-30T21:05:55.601Z,10.53
2019-03-30T21:08:26.861Z,9.40
2019-03-30T21:10:58.305Z,9.15
2019-03-30T21:13:29.686Z,7.75
2019-03-30T21:16:01.215Z,7.15
2019-03-30T21:18:32.534Z,10.60
2019-03-30T21:21:03.900Z,11.20
2019-03-30T21:23:35.763Z,14.35
2019-03-30T21:26:08.222Z,14.60
2019-03-30T21:28:39.635Z,12.88
2019-03-30T21:31:11.024Z,12.43
2019-03-30T21:33:42.348Z,13.88
2019-03-30T21:36:13.712Z,15.18
2019-03-30T21:38:44.972Z,15.48
2019-03-30T21:41:16.274Z,15.20
2019-03-30T21:43:47.640Z,16.25
2019-03-30T21:46:19.210Z,13.90
2019-03-30T21:48:54.493Z,13.58
2019-03-30T21:51:28.628Z,12.40
2019-03-30T21:53:59.863Z,12.25
2019-03-30T21:56:31.307Z,15.15
2019-03-30T21:59:02.745Z,14.05
2019-03-30T22:01:34.182Z,13.95
2019-03-30T22:04:06.487Z,9.15
2019-03-30T22:06:38.318Z,12.47
2019-03-30T22:09:10.271Z,11.38
2019-03-30T22:11:41.706Z,12.20
2019-03-30T22:14:13.510Z,11.90
2019-03-30T22:16:44.882Z,10.78
2019-03-30T22:19:16.225Z,11.73
2019-03-30T22:21:47.505Z,11.90
2019-03-30T22:24:18.888Z,12.43
2019-03-30T22:26:50.253Z,11.28
2019-03-30T22:29:22.746Z,11.95
2019-03-30T22:31:55.060Z,12.40
2019-03-30T22:34:28.366Z,13.15
2019-03-30T22:36:59.752Z,12.35
2019-03-30T22:39:31.015Z,12.70
2019-03-30T22:42:02.313Z,12.82
2019-03-30T22:44:33.602Z,12.80
2019-03-30T22:47:05.651Z,11.05
2019-03-30T22:49:37.975Z,12.10
2019-03-30T22:52:10.936Z,8.70
2019-03-30T22:54:42.226Z,9.10
2019-03-30T22:57:13.658Z,9.03
2019-03-30T22:59:45.053Z,7.85
2019-03-30T23:02:16.533Z,8.45
2019-03-30T23:04:47.912Z,9.18
2019-03-30T23:07:19.342Z,8.78
2019-03-30T23:09:50.627Z,9.53
2019-03-30T23:12:21.954Z,8.18
2019-03-30T23:14:54.784Z,10.32
2019-03-30T23:17:26.337Z,10.53
2019-03-30T23:19:57.762Z,10.95
2019-03-30T23:22:30.593Z,10.63
2019-03-30T23:25:01.838Z,10.55
2019-03-30T23:27:33.467Z,10.50
2019-03-30T23:30:07.682Z,9.90
2019-03-30T23:32:39.268Z,9.38
2019-03-30T23:35:10.840Z,9.03
2019-03-30T23:37:43.800Z,9.70
2019-03-30T23:40:15.253Z,10.08
2019-03-30T23:42:46.682Z,9.20
2019-03-30T23:45:18.150Z,10.05
2019-03-30T23:47:49.699Z,9.58
2019-03-30T23:50:20.931Z,9.40
2019-03-30T23:52:52.354Z,10.18
2019-03-30T23:55:23.609Z,10.50
2019-03-30T23:57:54.971Z,12.60
